Time;durP1;ratioP1;P1;durP2;ratioP2;P2;SDS_P1;SDS_P2;PMS_P1;PMS_P2;Temp;Humidity;BMP_temperature;BMP_pressure;BME280_temperature;BME280_humidity;BME280_pressure;Samples;Min_cycle;Max_cycle;Signal;HPM_P1;HPM_P2
2023/01/28 00:00:54;;;;;;;2.92;1.17;;;2.10;94.60;;;;;;5073311;28;20794;-65
2023/01/28 00:03:23;;;;;;;1.90;1.20;;;2.10;94.30;;;;;;5073949;28;20816;-65
2023/01/28 00:05:50;;;;;;;2.70;1.10;;;2.00;94.00;;;;;;5074391;28;20797;-66
2023/01/28 00:08:16;;;;;;;6.32;1.65;;;2.10;94.00;;;;;;5073361;28;20407;-65
2023/01/28 00:10:43;;;;;;;3.22;1.20;;;2.10;94.00;;;;;;5072703;28;20430;-68
2023/01/28 00:13:13;;;;;;;3.10;1.10;;;2.00;94.00;;;;;;5073609;28;20416;-65
2023/01/28 00:15:40;;;;;;;3.22;1.00;;;2.00;94.10;;;;;;5055507;28;20951;-66
2023/01/28 00:18:07;;;;;;;3.05;1.10;;;2.00;94.10;;;;;;5073238;28;20412;-65
2023/01/28 00:20:35;;;;;;;2.30;1.10;;;2.10;94.20;;;;;;5074209;28;20424;-66
2023/01/28 00:23:02;;;;;;;3.67;1.00;;;2.10;94.20;;;;;;5072634;28;20954;-65
2023/01/28 00:25:29;;;;;;;1.50;0.98;;;2.10;94.00;;;;;;5073487;28;20483;-65
2023/01/28 00:27:56;;;;;;;2.70;1.33;;;2.10;93.60;;;;;;5076972;28;20913;-65
2023/01/28 00:30:22;;;;;;;2.40;1.00;;;2.10;93.40;;;;;;5076845;28;20783;-65
2023/01/28 00:32:49;;;;;;;2.60;1.17;;;2.10;93.30;;;;;;5076499;28;20787;-65
2023/01/28 00:35:16;;;;;;;2.90;0.93;;;2.10;93.30;;;;;;5076841;28;20436;-64
2023/01/28 00:37:46;;;;;;;2.15;1.00;;;2.10;93.40;;;;;;5077309;28;20423;-66
2023/01/28 00:40:14;;;;;;;2.60;1.00;;;2.10;93.60;;;;;;5076520;28;20537;-65
2023/01/28 00:42:41;;;;;;;2.40;1.00;;;2.00;93.60;;;;;;5076579;28;20460;-65
2023/01/28 00:45:08;;;;;;;1.80;1.02;;;2.10;93.60;;;;;;5076678;28;20415;-65
2023/01/28 00:47:35;;;;;;;3.00;1.30;;;2.10;93.60;;;;;;5077763;28;20426;-64
2023/01/28 00:50:02;;;;;;;2.65;1.20;;;2.10;93.60;;;;;;5079839;28;20416;-65
2023/01/28 00:52:29;;;;;;;2.70;1.02;;;2.10;93.50;;;;;;5079023;28;20418;-65
2023/01/28 00:54:57;;;;;;;2.65;1.23;;;2.10;93.60;;;;;;5078240;28;20419;-65
2023/01/28 00:57:24;;;;;;;2.60;1.23;;;2.10;93.60;;;;;;5077990;28;20426;-66
2023/01/28 00:59:51;;;;;;;2.83;1.40;;;2.10;93.80;;;;;;5077115;28;20891;-65
2023/01/28 01:02:17;;;;;;;1.60;1.10;;;2.00;93.50;;;;;;5077072;28;20585;-65
2023/01/28 01:04:53;;;;;;;4.68;1.50;;;2.00;93.30;;;;;;5077284;28;20422;-65
2023/01/28 01:07:21;;;;;;;1.55;1.10;;;2.00;93.10;;;;;;5076302;28;20439;-65
2023/01/28 01:09:48;;;;;;;3.33;1.20;;;2.10;92.80;;;;;;5077137;28;20426;-65
2023/01/28 01:12:16;;;;;;;2.53;1.27;;;2.10;92.50;;;;;;5077549;28;20430;-64
2023/01/28 01:14:43;;;;;;;2.97;1.30;;;2.10;92.50;;;;;;5077213;28;20411;-65
2023/01/28 01:17:10;;;;;;;3.72;1.23;;;2.10;92.30;;;;;;5077437;28;20428;-65
2023/01/28 01:19:37;;;;;;;3.72;1.20;;;2.00;92.20;;;;;;5078380;28;20412;-65
2023/01/28 01:22:04;;;;;;;2.50;1.23;;;2.00;92.40;;;;;;5078447;28;20408;-64
2023/01/28 01:24:32;;;;;;;2.35;1.10;;;2.00;92.50;;;;;;5079065;28;20897;-64
2023/01/28 01:26:59;;;;;;;2.20;1.10;;;2.00;92.30;;;;;;5080436;28;20403;-66
2023/01/28 01:29:27;;;;;;;3.10;1.13;;;2.00;92.00;;;;;;5079371;28;20419;-66
2023/01/28 01:31:54;;;;;;;2.90;1.30;;;2.00;91.90;;;;;;5079440;28;20403;-64
2023/01/28 01:34:21;;;;;;;2.17;1.20;;;2.00;91.80;;;;;;5079575;28;20426;-65
2023/01/28 01:36:48;;;;;;;2.00;1.10;;;2.00;92.00;;;;;;5078467;28;20481;-65
2023/01/28 01:39:15;;;;;;;1.95;1.20;;;2.00;92.30;;;;;;5079006;28;20414;-65
2023/01/28 01:41:41;;;;;;;1.90;1.10;;;2.00;92.30;;;;;;5080934;28;20497;-64
2023/01/28 01:44:41;;;;;;;2.17;1.10;;;2.00;92.90;;;;;;5079679;28;20412;-66
2023/01/28 01:47:10;;;;;;;1.85;1.00;;;2.00;92.80;;;;;;5079245;28;20408;-65
2023/01/28 01:49:37;;;;;;;2.30;1.30;;;2.00;92.80;;;;;;5080176;28;20412;-65
2023/01/28 01:52:08;;;;;;;1.83;1.65;;;2.00;92.80;;;;;;5080639;28;20498;-65
2023/01/28 01:54:38;;;;;;;3.22;1.40;;;2.00;92.50;;;;;;5079770;28;20967;-64
2023/01/28 01:57:07;;;;;;;1.98;1.08;;;2.00;92.30;;;;;;5078341;28;20768;-65
2023/01/28 01:59:35;;;;;;;3.80;1.15;;;2.00;92.00;;;;;;5077199;28;20407;-64
2023/01/28 02:02:05;;;;;;;3.00;1.20;;;1.90;91.80;;;;;;5076870;28;20998;-65
2023/01/28 02:04:38;;;;;;;2.60;1.15;;;1.90;91.70;;;;;;5079801;28;20411;-66
2023/01/28 02:07:07;;;;;;;2.40;1.00;;;1.90;91.90;;;;;;5079025;28;20400;-66
2023/01/28 02:09:37;;;;;;;1.92;1.27;;;1.90;92.30;;;;;;5079688;28;20420;-64
2023/01/28 02:12:08;;;;;;;4.45;1.70;;;1.90;92.50;;;;;;5081364;28;20415;-65
2023/01/28 02:14:37;;;;;;;2.30;1.20;;;1.90;92.30;;;;;;5080346;28;20419;-65
2023/01/28 02:17:05;;;;;;;2.00;1.00;;;1.90;92.00;;;;;;5078455;28;20443;-65
2023/01/28 02:19:39;;;;;;;1.90;1.10;;;1.90;91.80;;;;;;5078323;28;20418;-65
2023/01/28 02:22:18;;;;;;;3.13;1.10;;;1.90;91.70;;;;;;5074450;28;20442;-65
2023/01/28 02:25:32;;;;;;;2.55;0.95;;;1.90;91.70;;;;;;5074962;28;20775;-66
2023/01/28 02:28:21;;;;;;;2.10;1.20;;;1.90;91.70;;;;;;5074556;28;20411;-64
2023/01/28 02:30:52;;;;;;;1.95;1.10;;;1.90;91.70;;;;;;5075710;28;20414;-64
2023/01/28 02:33:29;;;;;;;1.75;1.00;;;1.80;91.60;;;;;;5075785;28;20415;-64
2023/01/28 02:35:56;;;;;;;3.05;1.13;;;1.90;91.60;;;;;;5074624;28;20795;-64
2023/01/28 02:38:28;;;;;;;2.28;1.23;;;1.90;91.50;;;;;;5074553;28;20403;-65
2023/01/28 02:41:02;;;;;;;2.25;1.02;;;1.80;91.40;;;;;;5076897;28;20411;-67
2023/01/28 02:43:34;;;;;;;2.23;1.10;;;1.90;91.30;;;;;;5076569;28;20505;-65
2023/01/28 02:48:56;;;;;;;2.03;1.10;;;1.90;90.90;;;;;;5074155;28;20395;-64
2023/01/28 02:51:35;;;;;;;2.45;1.20;;;1.90;90.80;;;;;;5072250;28;20415;-65
2023/01/28 02:54:10;;;;;;;1.98;1.10;;;1.80;90.50;;;;;;5072886;28;20888;-65
2023/01/28 02:56:45;;;;;;;3.75;1.10;;;1.80;90.50;;;;;;5072621;28;20428;-65
2023/01/28 02:59:30;;;;;;;3.00;1.00;;;1.80;90.00;;;;;;5073126;28;20780;-65
2023/01/28 03:02:02;;;;;;;3.80;1.33;;;1.80;89.70;;;;;;5072754;28;20420;-64
2023/01/28 03:04:33;;;;;;;2.13;0.88;;;1.70;89.30;;;;;;5072845;28;20420;-65
2023/01/28 03:07:06;;;;;;;2.92;1.20;;;1.70;89.50;;;;;;5072774;28;20411;-64
2023/01/28 03:09:34;;;;;;;2.30;1.30;;;1.70;90.00;;;;;;5073279;28;20422;-64
2023/01/28 03:37:20;;;;;;;2.78;1.45;;;1.60;89.80;;;;;;5074171;28;20419;-66
2023/01/28 03:39:47;;;;;;;2.60;1.10;;;1.60;89.80;;;;;;5075339;28;20422;-64
2023/01/28 03:42:16;;;;;;;2.67;1.50;;;1.60;90.00;;;;;;5073503;28;20576;-64
2023/01/28 03:44:49;;;;;;;1.77;1.15;;;1.60;90.30;;;;;;5073879;28;20435;-65
2023/01/28 03:47:18;;;;;;;2.50;1.10;;;1.60;90.60;;;;;;5072438;28;20561;-65
2023/01/28 03:49:48;;;;;;;2.00;1.10;;;1.60;90.50;;;;;;5073650;28;20434;-64
2023/01/28 03:52:15;;;;;;;3.58;1.40;;;1.60;90.10;;;;;;5074036;28;20458;-65
2023/01/28 03:54:43;;;;;;;2.38;1.20;;;1.60;90.00;;;;;;5074362;28;20438;-65
2023/01/28 03:57:10;;;;;;;3.53;1.50;;;1.60;90.00;;;;;;5073974;28;20506;-64
2023/01/28 03:59:36;;;;;;;2.60;1.30;;;1.60;90.10;;;;;;5074552;28;20415;-64
2023/01/28 04:02:04;;;;;;;2.63;1.38;;;1.60;90.10;;;;;;5072254;28;20414;-64
2023/01/28 04:04:32;;;;;;;3.60;1.50;;;1.50;90.00;;;;;;5072993;28;20481;-65
2023/01/28 04:07:00;;;;;;;2.45;1.10;;;1.50;90.10;;;;;;5073453;28;20429;-66
2023/01/28 04:11:15;;;;;;;4.05;1.40;;;1.50;90.30;;;;;;5090669;28;20349;-64
2023/01/28 04:13:42;;;;;;;4.53;1.50;;;1.50;90.50;;;;;;5090464;28;20407;-65
2023/01/28 04:16:08;;;;;;;1.70;1.27;;;1.50;90.50;;;;;;5090879;28;20419;-65
2023/01/28 04:18:35;;;;;;;2.90;1.40;;;1.50;90.50;;;;;;5090150;28;20407;-66
2023/01/28 04:21:02;;;;;;;3.90;1.40;;;1.50;90.60;;;;;;5090286;28;20410;-64
2023/01/28 04:23:29;;;;;;;2.80;1.70;;;1.50;90.80;;;;;;5114405;22;20477;-66
2023/01/28 04:25:56;;;;;;;4.38;1.40;;;1.60;90.70;;;;;;5089198;28;20418;-65
2023/01/28 04:28:24;;;;;;;3.00;1.55;;;1.50;90.40;;;;;;5089206;28;20406;-66
2023/01/28 04:30:52;;;;;;;3.15;1.60;;;1.50;90.40;;;;;;5089272;28;20502;-65
2023/01/28 04:33:19;;;;;;;3.95;1.60;;;1.50;90.50;;;;;;5088593;28;20407;-65
2023/01/28 04:35:46;;;;;;;2.17;1.40;;;1.50;91.10;;;;;;5089145;28;20407;-65
2023/01/28 04:38:12;;;;;;;5.30;1.90;;;1.50;90.80;;;;;;5088518;28;20771;-65
2023/01/28 04:40:39;;;;;;;3.40;1.40;;;1.50;90.70;;;;;;5089359;28;20465;-66
2023/01/28 04:43:06;;;;;;;2.97;1.20;;;1.50;90.80;;;;;;5088324;28;20417;-66
2023/01/28 04:45:34;;;;;;;3.40;1.70;;;1.50;91.20;;;;;;5089012;28;20417;-65
2023/01/28 04:48:01;;;;;;;2.95;1.40;;;1.50;90.90;;;;;;5088414;28;20411;-66
2023/01/28 04:50:28;;;;;;;2.75;1.40;;;1.50;90.80;;;;;;5088915;28;20505;-65
2023/01/28 04:52:54;;;;;;;2.22;1.40;;;1.40;90.50;;;;;;5089273;28;20418;-66
2023/01/28 04:55:21;;;;;;;1.77;1.33;;;1.40;90.40;;;;;;5089793;28;20415;-65
2023/01/28 04:57:48;;;;;;;3.40;1.27;;;1.40;90.40;;;;;;5088706;28;20418;-64
2023/01/28 05:00:16;;;;;;;2.85;1.35;;;1.40;90.60;;;;;;5088281;28;20415;-64
2023/01/28 05:02:44;;;;;;;1.50;1.17;;;1.40;90.80;;;;;;5088208;28;20414;-66
2023/01/28 05:05:10;;;;;;;2.70;1.42;;;1.40;90.90;;;;;;5088313;28;20415;-66
2023/01/28 05:07:37;;;;;;;1.70;1.30;;;1.40;90.90;;;;;;5088779;28;20444;-65
2023/01/28 05:10:05;;;;;;;2.95;1.38;;;1.40;91.00;;;;;;5088303;28;20918;-66
2023/01/28 05:12:32;;;;;;;1.80;1.30;;;1.30;91.00;;;;;;5088308;28;20806;-65
2023/01/28 05:15:00;;;;;;;3.93;1.70;;;1.30;91.00;;;;;;5088216;28;20564;-64
2023/01/28 05:17:26;;;;;;;4.38;1.60;;;1.30;91.30;;;;;;5088448;28;20415;-64
2023/01/28 05:19:55;;;;;;;2.60;1.40;;;1.30;91.20;;;;;;5086771;28;20433;-63
2023/01/28 05:22:21;;;;;;;4.40;2.00;;;1.30;91.30;;;;;;5073775;28;20494;-64
2023/01/28 05:24:48;;;;;;;2.33;1.30;;;1.30;91.20;;;;;;5073438;28;20982;-64
2023/01/28 05:27:15;;;;;;;2.35;1.40;;;1.30;91.10;;;;;;5072635;28;20938;-64
2023/01/28 05:29:42;;;;;;;4.72;1.50;;;1.30;91.10;;;;;;5073396;28;20431;-65
2023/01/28 05:32:09;;;;;;;2.50;1.40;;;1.30;91.10;;;;;;5072709;28;20778;-65
2023/01/28 05:34:35;;;;;;;1.85;1.38;;;1.20;91.20;;;;;;5073470;28;20915;-65
2023/01/28 05:37:03;;;;;;;2.67;1.70;;;1.30;91.30;;;;;;5073258;28;20903;-66
2023/01/28 05:39:31;;;;;;;3.45;1.50;;;1.30;91.20;;;;;;5072320;28;20926;-65
2023/01/28 05:41:58;;;;;;;2.30;1.60;;;1.30;91.10;;;;;;5071847;28;20489;-64
2023/01/28 05:44:24;;;;;;;3.00;1.70;;;1.20;91.00;;;;;;5072459;28;20427;-65
2023/01/28 05:46:51;;;;;;;1.98;1.40;;;1.20;91.00;;;;;;5073398;28;20447;-66
2023/01/28 05:49:18;;;;;;;2.47;1.40;;;1.20;90.90;;;;;;5072223;28;20438;-66
2023/01/28 05:51:47;;;;;;;3.63;1.40;;;1.20;90.90;;;;;;5073859;28;20408;-66
2023/01/28 05:54:15;;;;;;;1.90;1.10;;;1.20;91.00;;;;;;5069551;28;20464;-66
2023/01/28 05:56:42;;;;;;;2.50;1.00;;;1.20;91.00;;;;;;5054145;28;20421;-65
2023/01/28 05:59:12;;;;;;;3.28;1.58;;;1.20;91.10;;;;;;5064835;28;20918;-66
2023/01/28 06:01:39;;;;;;;2.42;1.60;;;1.20;91.30;;;;;;5073323;28;20412;-66
2023/01/28 06:04:06;;;;;;;3.40;1.60;;;1.20;91.20;;;;;;5073468;28;20871;-64
2023/01/28 06:06:32;;;;;;;1.80;1.20;;;1.20;91.10;;;;;;5073624;28;20913;-64
2023/01/28 06:08:59;;;;;;;2.50;1.60;;;1.20;91.10;;;;;;5073881;28;20425;-65
2023/01/28 06:11:27;;;;;;;2.72;1.70;;;1.20;90.90;;;;;;5073677;28;20438;-64
2023/01/28 06:13:54;;;;;;;2.80;1.50;;;1.10;90.70;;;;;;5073423;28;20498;-65
2023/01/28 06:16:21;;;;;;;4.30;1.80;;;1.10;90.60;;;;;;5073811;28;20415;-65
2023/01/28 06:18:48;;;;;;;2.47;1.67;;;1.10;90.40;;;;;;5073710;28;20891;-65
2023/01/28 06:21:15;;;;;;;2.40;1.57;;;1.10;90.00;;;;;;5073906;28;20513;-64
2023/01/28 06:23:42;;;;;;;2.65;1.63;;;1.00;90.00;;;;;;5073218;28;20416;-65
2023/01/28 06:26:08;;;;;;;2.80;1.70;;;1.00;90.10;;;;;;5072903;28;20519;-64
2023/01/28 06:28:37;;;;;;;2.78;1.30;;;1.10;90.30;;;;;;5072806;28;20438;-65
2023/01/28 06:31:04;;;;;;;2.92;1.50;;;1.10;90.30;;;;;;5072292;28;20449;-66
2023/01/28 06:33:31;;;;;;;2.47;1.40;;;1.10;90.40;;;;;;5071636;28;21053;-65
2023/01/28 06:35:58;;;;;;;1.80;1.40;;;1.00;90.40;;;;;;5071844;28;20427;-66
2023/01/28 06:38:24;;;;;;;3.50;1.50;;;1.00;90.20;;;;;;5072692;28;20524;-65
2023/01/28 06:40:52;;;;;;;3.38;1.73;;;1.00;90.10;;;;;;5072743;28;20433;-65
2023/01/28 06:43:18;;;;;;;2.85;1.75;;;1.00;90.10;;;;;;5071683;28;20522;-66
2023/01/28 06:45:47;;;;;;;2.78;1.65;;;1.00;90.10;;;;;;5072852;28;20427;-66
2023/01/28 06:48:14;;;;;;;3.00;1.90;;;1.00;90.00;;;;;;5071811;28;20427;-65
2023/01/28 06:50:40;;;;;;;1.90;1.50;;;1.00;90.00;;;;;;5072906;28;20929;-65
2023/01/28 06:53:07;;;;;;;3.10;1.63;;;1.00;90.00;;;;;;5072761;28;20437;-64
2023/01/28 06:55:34;;;;;;;3.03;1.58;;;1.00;90.00;;;;;;5072748;28;20942;-64
2023/01/28 06:58:01;;;;;;;1.98;1.60;;;1.00;90.00;;;;;;5073589;28;20509;-65
2023/01/28 07:00:27;;;;;;;2.55;1.60;;;1.00;89.90;;;;;;5072083;28;20431;-65
2023/01/28 07:02:57;;;;;;;2.92;1.38;;;1.00;89.80;;;;;;5073433;28;20411;-65
2023/01/28 07:05:24;;;;;;;1.90;1.50;;;1.00;89.80;;;;;;5071998;28;20427;-65
2023/01/28 07:07:51;;;;;;;2.60;1.90;;;1.00;89.70;;;;;;5072845;28;20441;-65
2023/01/28 07:10:18;;;;;;;3.92;1.75;;;1.00;89.50;;;;;;5073327;28;20428;-66
2023/01/28 07:12:45;;;;;;;2.20;1.60;;;0.90;89.30;;;;;;5072451;28;20434;-64
2023/01/28 07:15:13;;;;;;;2.30;1.70;;;0.90;89.20;;;;;;5072387;28;20435;-67
2023/01/28 07:17:41;;;;;;;2.90;1.70;;;0.90;89.20;;;;;;5073712;28;20415;-67
2023/01/28 07:20:12;;;;;;;4.07;1.95;;;0.90;89.50;;;;;;5074422;28;20407;-68
2023/01/28 07:22:40;;;;;;;2.13;1.60;;;0.90;90.00;;;;;;5072827;28;20926;-68
2023/01/28 07:25:08;;;;;;;3.58;2.03;;;0.90;90.00;;;;;;5073345;28;20427;-67
2023/01/28 07:27:35;;;;;;;3.55;1.90;;;1.00;89.90;;;;;;5073745;28;20427;-67
2023/01/28 07:30:03;;;;;;;2.80;1.80;;;1.00;89.90;;;;;;5074388;28;20840;-67
2023/01/28 07:32:30;;;;;;;3.72;2.03;;;1.10;90.20;;;;;;5074331;28;20412;-68
2023/01/28 07:34:57;;;;;;;2.17;1.70;;;1.10;90.30;;;;;;5073983;28;20522;-67
2023/01/28 07:37:25;;;;;;;4.38;2.05;;;1.10;90.30;;;;;;5074626;28;20428;-67
2023/01/28 07:39:52;;;;;;;3.05;1.70;;;1.20;90.30;;;;;;5073784;28;20454;-67
2023/01/28 07:42:19;;;;;;;2.07;1.60;;;1.20;90.20;;;;;;5069506;28;20423;-68
2023/01/28 07:44:46;;;;;;;2.10;1.52;;;1.20;90.10;;;;;;5069078;28;20497;-68
2023/01/28 07:47:13;;;;;;;2.50;1.50;;;1.20;89.90;;;;;;5070296;28;20822;-67
2023/01/28 07:49:40;;;;;;;3.50;1.90;;;1.20;89.80;;;;;;5069303;28;20483;-67
2023/01/28 07:52:07;;;;;;;3.10;2.00;;;1.20;89.20;;;;;;5072149;28;20491;-67
2023/01/28 07:54:35;;;;;;;2.28;1.70;;;1.20;88.80;;;;;;5072546;28;20416;-67
2023/01/28 07:57:05;;;;;;;3.80;1.90;;;1.10;88.70;;;;;;5071174;28;20423;-68
2023/01/28 07:59:31;;;;;;;3.13;1.50;;;1.10;88.90;;;;;;5072633;28;20423;-67
2023/01/28 08:02:00;;;;;;;4.10;2.28;;;1.20;89.50;;;;;;5071680;28;20438;-67
2023/01/28 08:04:27;;;;;;;2.15;1.60;;;1.20;89.40;;;;;;5072194;28;20510;-67
2023/01/28 08:06:53;;;;;;;1.60;1.50;;;1.20;89.30;;;;;;5071539;28;20427;-66
2023/01/28 08:09:20;;;;;;;3.13;1.65;;;1.20;88.90;;;;;;5072338;28;20414;-68
2023/01/28 08:11:48;;;;;;;2.15;1.70;;;1.30;88.60;;;;;;5071831;28;20791;-66
2023/01/28 08:14:15;;;;;;;4.82;2.17;;;1.30;88.40;;;;;;5072121;28;20411;-67
2023/01/28 08:16:42;;;;;;;2.97;1.63;;;1.30;87.90;;;;;;5071223;28;20917;-67
2023/01/28 08:19:09;;;;;;;3.40;1.95;;;1.30;87.60;;;;;;5072952;28;20419;-67
2023/01/28 08:21:36;;;;;;;3.65;2.10;;;1.30;87.20;;;;;;5071332;28;20934;-67
2023/01/28 08:24:03;;;;;;;3.53;1.80;;;1.30;87.20;;;;;;5072737;28;20412;-67
2023/01/28 08:26:29;;;;;;;3.10;1.97;;;1.40;87.00;;;;;;5069047;28;20982;-68
2023/01/28 08:28:57;;;;;;;2.90;2.03;;;1.40;86.90;;;;;;5072868;28;20407;-68
2023/01/28 08:31:24;;;;;;;3.65;1.77;;;1.50;86.70;;;;;;5071181;28;20434;-67
2023/01/28 08:33:51;;;;;;;3.40;1.80;;;1.50;86.30;;;;;;5071070;28;20440;-68
2023/01/28 08:36:18;;;;;;;2.00;1.80;;;1.50;85.70;;;;;;5072173;28;20533;-68
2023/01/28 08:38:45;;;;;;;3.15;2.20;;;1.60;85.40;;;;;;5072910;28;20478;-68
2023/01/28 08:41:12;;;;;;;2.47;2.20;;;1.60;84.90;;;;;;5071462;28;20428;-67
2023/01/28 08:43:39;;;;;;;2.55;2.20;;;1.60;84.30;;;;;;5071363;28;20530;-68
2023/01/28 08:46:07;;;;;;;4.10;2.10;;;1.60;84.30;;;;;;5067765;28;20526;-68
2023/01/28 08:48:34;;;;;;;3.08;2.40;;;1.70;84.10;;;;;;5072120;28;20487;-68
2023/01/28 08:51:01;;;;;;;2.97;2.40;;;1.80;83.50;;;;;;5071719;28;20463;-68
2023/01/28 08:53:28;;;;;;;2.95;2.40;;;1.80;82.60;;;;;;5071567;28;20528;-66
2023/01/28 08:55:55;;;;;;;3.60;2.47;;;1.80;81.90;;;;;;5069818;28;20434;-67
2023/01/28 08:58:21;;;;;;;4.10;2.50;;;1.80;82.40;;;;;;5071224;28;20509;-67
2023/01/28 09:00:49;;;;;;;3.67;2.53;;;1.80;81.60;;;;;;5072266;28;20423;-69
2023/01/28 09:03:18;;;;;;;3.85;2.40;;;1.90;80.80;;;;;;5059404;28;20416;-67
2023/01/28 09:05:45;;;;;;;5.18;3.13;;;1.90;80.60;;;;;;5059580;28;20415;-67
2023/01/28 09:08:13;;;;;;;4.38;2.30;;;1.90;80.00;;;;;;5072961;28;20457;-67
2023/01/28 09:10:40;;;;;;;3.42;2.70;;;2.00;79.50;;;;;;5063770;28;20815;-68
2023/01/28 09:13:09;;;;;;;3.30;2.65;;;2.10;79.20;;;;;;5070559;28;20438;-68
2023/01/28 09:15:36;;;;;;;3.35;2.35;;;2.20;79.00;;;;;;5072827;28;20421;-67
2023/01/28 09:18:03;;;;;;;3.30;2.65;;;2.30;78.10;;;;;;5064954;28;20487;-66
2023/01/28 09:20:32;;;;;;;4.80;2.70;;;2.20;77.40;;;;;;5068434;28;20787;-67
2023/01/28 09:22:59;;;;;;;4.40;2.58;;;2.20;77.70;;;;;;5074671;28;20465;-68
2023/01/28 09:25:26;;;;;;;3.97;3.10;;;2.20;77.50;;;;;;5074220;28;20424;-67
2023/01/28 09:27:53;;;;;;;3.10;2.60;;;2.10;77.70;;;;;;5075599;28;20423;-66
2023/01/28 09:30:20;;;;;;;2.95;2.50;;;1.90;78.10;;;;;;5073858;28;20454;-67
2023/01/28 09:32:50;;;;;;;3.08;2.70;;;1.90;78.90;;;;;;5075892;28;20415;-66
2023/01/28 09:35:18;;;;;;;4.53;2.60;;;1.90;79.50;;;;;;5073745;28;20922;-68
2023/01/28 09:37:46;;;;;;;4.80;3.05;;;1.80;79.70;;;;;;5074076;28;20435;-68
2023/01/28 09:40:17;;;;;;;3.20;2.50;;;1.70;80.10;;;;;;5074405;28;20433;-67
2023/01/28 09:43:07;;;;;;;3.78;2.47;;;1.70;80.60;;;;;;5074401;28;20795;-67
2023/01/28 09:45:40;;;;;;;2.30;2.10;;;1.60;81.20;;;;;;5074255;28;20432;-67
2023/01/28 09:48:13;;;;;;;3.30;2.50;;;1.50;82.00;;;;;;5075143;28;20416;-68
2023/01/28 09:50:43;;;;;;;5.45;2.65;;;1.50;83.10;;;;;;5074492;28;20439;-67
2023/01/28 09:53:16;;;;;;;3.75;2.40;;;1.50;83.90;;;;;;5075151;28;20461;-68
2023/01/28 09:55:45;;;;;;;3.60;2.57;;;1.60;83.60;;;;;;5074130;28;20802;-67
2023/01/28 09:58:16;;;;;;;4.20;2.60;;;1.60;83.50;;;;;;5075463;28;20883;-67
2023/01/28 10:00:51;;;;;;;5.15;2.53;;;1.60;83.70;;;;;;5074568;28;20911;-65
2023/01/28 10:03:42;;;;;;;3.38;3.08;;;1.60;83.80;;;;;;5074320;28;20450;-67
2023/01/28 10:06:22;;;;;;;4.60;3.00;;;1.60;83.50;;;;;;5075433;28;20416;-67
2023/01/28 10:09:12;;;;;;;4.82;3.10;;;1.60;83.30;;;;;;5074578;28;20895;-67
2023/01/28 10:11:53;;;;;;;3.47;2.80;;;1.60;83.10;;;;;;5062628;28;20438;-67
2023/01/28 10:14:33;;;;;;;3.50;3.20;;;1.50;82.60;;;;;;5074023;28;20423;-67
2023/01/28 10:17:07;;;;;;;4.15;3.38;;;1.50;82.60;;;;;;5075461;28;20412;-67
2023/01/28 10:19:39;;;;;;;4.10;3.00;;;1.50;82.90;;;;;;5073316;28;20420;-65
2023/01/28 10:22:11;;;;;;;5.57;3.00;;;1.50;83.40;;;;;;5074364;28;20535;-67
2023/01/28 10:24:43;;;;;;;3.58;3.28;;;1.50;83.10;;;;;;5073252;28;20435;-68
2023/01/28 10:27:15;;;;;;;4.45;3.60;;;1.40;83.00;;;;;;5075810;28;20426;-67
2023/01/28 10:29:44;;;;;;;4.40;3.30;;;1.40;82.70;;;;;;5073811;28;20435;-68
2023/01/28 10:32:21;;;;;;;5.10;3.70;;;1.40;83.10;;;;;;5074436;28;20419;-67
2023/01/28 10:34:48;;;;;;;4.57;3.40;;;1.50;82.20;;;;;;5073257;28;20619;-68
2023/01/28 10:37:16;;;;;;;4.13;3.17;;;1.60;82.10;;;;;;5073553;28;20418;-68
2023/01/28 10:39:45;;;;;;;3.83;3.43;;;1.60;81.10;;;;;;5072352;28;20916;-69
2023/01/28 10:42:20;;;;;;;4.13;3.47;;;1.70;81.10;;;;;;5072795;28;20434;-69
2023/01/28 10:44:49;;;;;;;3.78;3.20;;;1.80;80.20;;;;;;5073586;28;20486;-67
2023/01/28 10:47:27;;;;;;;5.50;3.25;;;1.90;79.80;;;;;;5073763;28;20489;-70
2023/01/28 10:49:58;;;;;;;3.92;3.33;;;2.00;78.80;;;;;;5074745;28;20779;-68
2023/01/28 10:52:25;;;;;;;4.60;3.10;;;2.00;77.70;;;;;;5118317;22;21018;-63
2023/01/28 10:55:01;;;;;;;3.58;3.22;;;2.00;77.60;;;;;;5094331;28;20420;-64
2023/01/28 10:57:28;;;;;;;3.30;3.00;;;2.00;76.90;;;;;;5094070;28;20934;-63
2023/01/28 10:59:55;;;;;;;5.00;3.20;;;2.00;76.60;;;;;;5094555;28;20410;-66
2023/01/28 11:02:28;;;;;;;4.28;3.25;;;1.90;76.70;;;;;;5108592;28;20733;-64
2023/01/28 11:05:02;;;;;;;3.40;3.10;;;1.90;76.70;;;;;;5114278;28;20428;-62
2023/01/28 11:07:29;;;;;;;3.83;3.43;;;1.80;76.80;;;;;;5113246;28;20819;-64
2023/01/28 11:09:56;;;;;;;4.90;3.10;;;1.70;77.00;;;;;;5114935;28;20415;-64
2023/01/28 11:12:26;;;;;;;5.30;3.50;;;1.70;78.00;;;;;;5114811;28;20503;-64
2023/01/28 11:14:55;;;;;;;5.18;3.35;;;1.80;78.60;;;;;;5115419;28;20793;-65
2023/01/28 11:17:24;;;;;;;4.80;3.30;;;1.80;78.20;;;;;;5113205;28;20432;-63
2023/01/28 11:19:52;;;;;;;4.38;3.03;;;1.80;77.80;;;;;;5098722;28;20418;-69
2023/01/28 11:22:26;;;;;;;4.30;3.50;;;1.80;77.80;;;;;;5113417;28;20411;-64
2023/01/28 11:24:54;;;;;;;4.50;3.63;;;1.80;78.20;;;;;;5113861;28;20412;-65
2023/01/28 11:27:27;;;;;;;4.10;3.30;;;1.90;78.20;;;;;;5113555;28;20495;-66
2023/01/28 11:29:56;;;;;;;3.55;3.03;;;2.00;77.40;;;;;;5112545;28;20799;-65
2023/01/28 11:32:26;;;;;;;3.78;3.00;;;1.90;77.00;;;;;;5113839;28;20420;-65
2023/01/28 11:34:56;;;;;;;3.65;3.10;;;2.00;76.90;;;;;;5114086;28;20439;-65
2023/01/28 11:37:24;;;;;;;4.87;3.20;;;2.00;76.20;;;;;;5114554;28;20424;-64
2023/01/28 11:40:02;;;;;;;4.93;3.15;;;2.00;76.00;;;;;;5113184;28;20455;-63
2023/01/28 11:42:31;;;;;;;4.70;3.17;;;2.00;76.00;;;;;;5113736;28;20410;-64
2023/01/28 11:44:57;;;;;;;3.38;2.78;;;2.10;75.50;;;;;;5113305;28;20444;-63
2023/01/28 11:47:38;;;;;;;4.25;3.00;;;2.20;75.20;;;;;;5114086;28;20745;-66
2023/01/28 11:50:29;;;;;;;5.80;3.40;;;2.20;74.70;;;;;;5113607;28;20510;-65
2023/01/28 11:53:14;;;;;;;5.65;3.83;;;2.30;74.50;;;;;;5112144;27;20431;-65
2023/01/28 11:55:53;;;;;;;4.00;3.40;;;2.30;74.20;;;;;;5113764;28;20434;-65
2023/01/28 11:58:31;;;;;;;4.53;4.13;;;2.30;73.60;;;;;;5113034;28;20467;-65
2023/01/28 12:01:03;;;;;;;4.45;3.90;;;2.30;73.20;;;;;;5114240;28;20772;-65
2023/01/28 12:03:42;;;;;;;5.43;3.95;;;2.10;72.90;;;;;;5115231;28;20436;-64
2023/01/28 12:06:26;;;;;;;4.43;3.60;;;2.00;73.20;;;;;;5113615;28;20408;-65
2023/01/28 12:09:01;;;;;;;5.97;3.75;;;1.80;73.80;;;;;;5106292;28;20816;-64
2023/01/28 12:14:33;;;;;;;4.30;3.90;;;1.70;75.40;;;;;;5112917;28;20458;-63
2023/01/28 12:17:11;;;;;;;4.80;4.30;;;1.80;76.30;;;;;;5115574;28;20412;-63
2023/01/28 12:19:59;;;;;;;4.65;3.95;;;1.90;76.30;;;;;;5115942;28;20423;-64
2023/01/28 12:22:50;;;;;;;6.40;4.35;;;2.00;76.10;;;;;;5113259;28;20396;-63
2023/01/28 12:25:28;;;;;;;5.55;4.30;;;2.20;76.00;;;;;;5114665;28;20404;-64
2023/01/28 12:28:08;;;;;;;4.75;4.35;;;2.40;75.70;;;;;;5111992;28;20437;-63
2023/01/28 12:30:47;;;;;;;4.32;3.90;;;2.40;75.00;;;;;;5113513;28;20453;-62
2023/01/28 12:33:37;;;;;;;5.25;4.60;;;2.40;75.00;;;;;;5117610;28;20514;-63
2023/01/28 12:36:18;;;;;;;4.70;4.30;;;2.50;75.20;;;;;;5118005;28;20435;-63
2023/01/28 12:38:53;;;;;;;4.75;4.30;;;2.50;75.30;;;;;;5117870;28;20424;-63
2023/01/28 12:41:22;;;;;;;5.20;4.70;;;2.50;75.60;;;;;;5119120;28;20432;-63
2023/01/28 12:44:00;;;;;;;5.80;5.20;;;2.50;74.70;;;;;;5120303;28;20444;-63
2023/01/28 12:46:40;;;;;;;5.30;4.72;;;2.50;74.40;;;;;;5119098;28;20485;-63
2023/01/28 12:49:13;;;;;;;4.60;4.20;;;2.60;75.40;;;;;;5117044;28;20970;-64
2023/01/28 12:51:51;;;;;;;4.80;4.30;;;2.70;75.20;;;;;;5116599;28;20434;-64
2023/01/28 12:54:22;;;;;;;5.13;4.43;;;2.90;76.30;;;;;;5117749;28;20526;-63
2023/01/28 12:56:52;;;;;;;4.88;4.40;;;2.90;74.80;;;;;;5118310;28;20785;-63
2023/01/28 12:59:25;;;;;;;4.00;3.70;;;2.90;74.10;;;;;;5117415;28;20557;-63
2023/01/28 13:02:00;;;;;;;4.55;4.15;;;2.80;73.80;;;;;;5117413;28;20418;-62
2023/01/28 13:04:37;;;;;;;4.35;3.65;;;2.70;73.90;;;;;;5118025;28;20440;-63
2023/01/28 13:07:11;;;;;;;4.70;4.20;;;2.60;73.50;;;;;;5126831;28;20408;-64
2023/01/28 13:09:42;;;;;;;6.70;4.57;;;2.40;74.00;;;;;;5126731;28;20487;-62
2023/01/28 13:12:11;;;;;;;5.30;4.32;;;2.30;75.10;;;;;;5124838;28;20419;-66
2023/01/28 13:14:38;;;;;;;4.80;4.20;;;2.20;76.20;;;;;;5121400;28;20432;-64
2023/01/28 13:17:26;;;;;;;5.15;4.50;;;2.10;76.20;;;;;;5124268;28;20487;-61
2023/01/28 13:19:52;;;;;;;6.70;4.78;;;2.00;77.50;;;;;;5118792;28;20423;-65
2023/01/28 13:22:32;;;;;;;6.97;4.40;;;1.90;77.80;;;;;;5117156;28;20432;-63
2023/01/28 13:25:18;;;;;;;5.68;4.30;;;1.90;78.60;;;;;;5118990;28;20412;-65
2023/01/28 13:27:55;;;;;;;5.30;4.80;;;1.80;79.10;;;;;;5099049;28;20840;-65
2023/01/28 13:30:27;;;;;;;5.30;4.40;;;1.90;80.00;;;;;;5100110;28;20414;-64
2023/01/28 13:32:58;;;;;;;5.57;4.82;;;2.00;80.10;;;;;;5118038;28;20431;-62
2023/01/28 13:35:32;;;;;;;5.40;4.90;;;2.10;80.00;;;;;;5116007;28;20485;-63
2023/01/28 13:38:00;;;;;;;5.93;5.10;;;2.10;78.80;;;;;;5115162;28;20532;-63
2023/01/28 13:40:29;;;;;;;5.68;4.82;;;2.00;78.30;;;;;;5119730;28;20491;-65
2023/01/28 13:43:01;;;;;;;5.85;5.35;;;1.90;78.00;;;;;;5121763;28;20416;-64
2023/01/28 13:45:28;;;;;;;5.75;5.18;;;1.90;78.30;;;;;;5120136;28;20428;-62